CDT,Max TemperatureF,Mean TemperatureF,Min TemperatureF,Max Dew PointF,MeanDew PointF,Min DewpointF,Max Humidity, Mean Humidity, Min Humidity, Max Sea Level PressureIn, Mean Sea Level PressureIn, Min Sea Level PressureIn, Max VisibilityMiles, Mean VisibilityMiles, Min VisibilityMiles, Max Wind SpeedMPH, Mean Wind SpeedMPH, Max Gust SpeedMPH,PrecipitationIn, CloudCover, Events, WindDirDegrees
2012-10-1,70,62,54,60,54,48,93,75,51,29.79,29.72,29.68,10,10,10,15,10,,0.00,3,Rain,360
2012-10-2,74,60,47,52,48,46,93,67,36,29.94,29.87,29.79,10,10,10,10,7,,0.00,0,,298
2012-10-3,79,66,54,56,54,51,96,72,45,30.12,30.03,29.95,10,10,10,15,8,22,0.00,0,,186
2012-10-4,82,66,51,61,55,52,100,78,37,30.24,30.18,30.13,10,8,0,14,5,17,0.00,0,Fog,181
2012-10-5,77,62,46,66,56,44,100,90,58,30.20,30.08,29.97,10,8,1,24,10,36,0.57,5,Rain-Thunderstorm,356
2012-10-6,54,48,41,45,40,35,93,77,50,30.28,30.23,30.18,10,10,10,15,10,17,0.07,7,Rain-Thunderstorm,2
2012-10-7,55,47,39,47,39,34,93,70,45,30.31,30.25,30.19,10,10,10,12,7,16,0.00,3,,350
2012-10-8,59,52,43,44,42,37,93,75,49,30.29,30.21,30.14,10,10,2,8,3,,0.02,4,Rain,239
2012-10-9,66,52,39,54,46,39,100,75,47,30.16,30.08,29.97,10,10,10,14,6,20,0.00,2,,185
2012-10-10,65,56,48,55,44,34,93,65,33,30.29,30.20,30.05,10,10,10,16,8,20,0.00,3,,5
2012-10-11,59,54,50,53,46,40,97,74,61,30.30,30.24,30.19,10,10,10,9,3,,0.06,7,Rain-Thunderstorm,87
2012-10-12,60,57,54,59,56,53,100,96,88,30.34,30.25,30.17,10,7,0,12,5,,0.19,8,Fog-Rain-Thunderstorm,43
2012-10-13,81,70,59,68,63,59,100,86,56,30.21,30.11,29.92,10,5,0,18,8,25,0.00,6,Fog,161
2012-10-14,79,70,61,68,61,53,100,79,46,30.01,29.91,29.82,10,10,6,28,18,33,0.54,4,Rain,209
2012-10-15,77,64,50,55,50,47,92,70,36,30.08,30.01,29.96,10,10,10,12,5,,0.00,0,,201
2012-10-16,77,64,52,56,53,50,100,75,39,29.96,29.86,29.78,10,10,10,20,10,31,0.00,0,,185
2012-10-17,79,68,55,68,61,52,97,82,58,29.76,29.61,29.50,10,9,2,25,14,37,0.48,5,Rain-Thunderstorm,214
2012-10-18,68,58,48,52,40,30,97,58,25,29.83,29.78,29.74,10,10,10,23,9,25,0.00,0,,248
2012-10-19,64,57,46,43,38,35,86,54,37,29.89,29.79,29.73,10,10,8,22,9,28,0.00,4,,269
2012-10-20,72,56,41,49,44,39,93,70,35,29.98,29.91,29.87,10,10,10,12,5,,0.00,0,,180
2012-10-21,81,66,50,67,56,47,89,74,60,30.00,29.97,29.93,10,10,10,20,9,26,0.00,2,,174
2012-10-22,81,70,59,65,57,53,86,69,42,30.09,30.03,29.99,10,10,10,24,13,34,0.00,2,,178
2012-10-23,81,69,57,63,57,53,90,71,44,30.05,30.00,29.96,10,10,10,20,10,28,0.00,0,,184
2012-10-24,81,67,53,65,59,54,100,84,52,30.07,30.02,29.95,10,8,0,15,7,21,0.00,1,Fog,165
2012-10-25,82,66,48,65,58,48,96,78,49,30.09,29.96,29.88,10,9,5,23,13,30,0.31,5,Rain-Thunderstorm,200
2012-10-26,48,44,39,46,42,34,100,88,66,30.28,30.20,30.11,10,9,2,18,13,23,0.33,6,Rain,1
2012-10-27,55,44,34,36,32,27,86,69,34,30.29,30.22,30.15,10,10,10,17,10,25,0.00,0,,351
2012-10-28,56,45,34,35,32,30,89,67,36,30.26,30.22,30.17,10,10,10,13,8,,0.00,0,,344
2012-10-29,56,44,32,33,30,22,86,60,27,30.34,30.24,30.13,10,10,10,12,7,17,0.00,0,,337
2012-10-30,63,48,34,40,33,29,79,55,29,30.12,30.03,29.94,10,10,10,12,6,,0.00,1,,295
2012-10-31,66,54,43,41,36,33,82,47,32,30.05,29.99,29.96,10,5,0,10,4,23,0.00,0,Rain,308